Observations for PESCARA, Italy (LIBP)

LIBP 230450Z AUTO 23003KT 9999 BKN092/// BKN120/// 14/12 Q1016  
LIBP 230450Z AUTO 23003KT 9999 BKN092 BKN120 14/12 Q1016
LIBP 230350Z AUTO 23005KT 9999 FEW095/// BKN120/// 12/11 Q1015  
LIBP 230350Z AUTO 23005KT 9999 FEW095 BKN120 12/11 Q1015
LIBP 230250Z AUTO VRB02KT 9999 BKN120/// 12/11 Q1015
LIBP 230250Z AUTO VRB02KT 9999 BKN120 12/11 Q1015
LIBP 230150Z AUTO VRB01KT 9999 FEW094/// 12/11 Q1016
LIBP 230150Z AUTO VRB01KT 9999 FEW094 12/11 Q1016
LIBP 230050Z AUTO 20003KT 9999 NCD 12/11 Q1016  
LIBP 222350Z AUTO 23004KT 9999 FEW095/// 13/11 Q1016
LIBP 222350Z AUTO 23004KT 9999 FEW095 13/11 Q1016
LIBP 222250Z AUTO 23004KT 9999 SCT190/// 14/12 Q1016
LIBP 222250Z AUTO 23004KT 9999 SCT190 14/12 Q1016
LIBP 222150Z AUTO 25003KT 9999 FEW087/// SCT200/// 15/12 Q1016  
LIBP 222150Z AUTO 25003KT 9999 FEW087 SCT200 15/12 Q1016
LIBP 222050Z 19001KT 9999 SCT080 17/12 Q1016
LIBP 221950Z VRB02KT 9999 SCT080 17/13 Q1016
LIBP 221850Z VRB01KT 9999 SCT060 BKN090 18/13 Q1016 
LIBP 221750Z 04003KT 9999 SCT080 18/13 Q1015
LIBP 221650Z 05008KT 9999 FEW080 20/13 Q1014
LIBP 221550Z 07008KT 030V090 9999 FEW080 21/12 Q1015
LIBP 221450Z 07010KT 040V100 CAVOK 21/11 Q1015  
LIBP 221350Z 07011KT 9999 FEW060 21/11 Q1015
LIBP 221250Z 06011KT CAVOK 21/12 Q1015  
LIBP 221150Z 07010KT 040V110 CAVOK 22/12 Q1015  
LIBP 221050Z 08010KT 040V100 9999 FEW085 21/12 Q1015
LIBP 220950Z 07011KT 050V110 9999 FEW085 21/11 Q1015
LIBP 220850Z 05007KT 9999 SCT080 21/10 Q1015
LIBP 220750Z VRB02KT 9999 BKN075 20/09 Q1015
LIBP 220650Z 30003KT 250V330 9999 BKN070 18/09 Q1015
LIBP 220550Z 27005KT 230V310 9999 BKN065 19/09 Q1015
LIBP 220450Z AUTO 26005KT 200V280 9999 BKN071/// 18/09 Q1014
LIBP 220450Z AUTO 26005KT 200V280 9999 BKN071 18/09 Q1014